createdAt,value
2022-08-01T00:00:04.650Z,47.67
2022-08-01T00:02:32.029Z,46.72
2022-08-01T00:04:59.126Z,47.75
2022-08-01T00:07:25.534Z,49.25
2022-08-01T00:09:52.247Z,48.28
2022-08-01T00:12:18.690Z,48.05
2022-08-01T00:14:45.132Z,47.53
2022-08-01T00:17:11.662Z,47.90
2022-08-01T00:19:38.097Z,45.53
2022-08-01T00:22:05.022Z,47.63
2022-08-01T00:24:31.612Z,48.00
2022-08-01T00:26:58.013Z,47.13
2022-08-01T00:30:10.003Z,48.50
2022-08-01T00:32:10.925Z,47.28
2022-08-01T00:34:37.376Z,48.63
2022-08-01T00:37:03.855Z,48.80
2022-08-01T00:39:30.573Z,48.70
2022-08-01T00:42:01.897Z,48.55
2022-08-01T00:44:28.477Z,47.90
2022-08-01T00:46:54.979Z,48.45
2022-08-01T00:49:21.569Z,48.67
2022-08-01T00:51:48.074Z,46.75
2022-08-01T00:54:16.721Z,48.25
2022-08-01T00:56:44.576Z,47.17
2022-08-01T00:59:14.035Z,44.60
2022-08-01T01:01:41.146Z,43.63
2022-08-01T01:04:13.350Z,44.33
2022-08-01T01:06:50.217Z,43.92
2022-08-01T01:09:40.302Z,43.75
2022-08-01T01:12:38.682Z,43.35
2022-08-01T01:15:12.570Z,42.10
2022-08-01T01:17:58.360Z,44.67
2022-08-01T01:20:31.270Z,44.65
2022-08-01T01:23:36.578Z,44.30
2022-08-01T01:26:38.360Z,45.17
2022-08-01T01:29:09.445Z,47.40
2022-08-01T01:32:06.766Z,48.00
2022-08-01T01:34:37.366Z,47.55
2022-08-01T01:37:07.514Z,48.53
2022-08-01T01:42:02.757Z,49.08
2022-08-01T01:44:30.746Z,48.50
2022-08-01T01:46:58.782Z,49.25
2022-08-01T01:49:27.902Z,47.95
2022-08-01T01:52:02.300Z,50.85
2022-08-01T01:54:33.985Z,45.95
2022-08-01T01:57:03.075Z,48.17
2022-08-01T01:59:32.731Z,49.53
2022-08-01T02:02:06.314Z,46.83
2022-08-01T02:04:36.909Z,46.17
2022-08-01T02:09:32.190Z,46.33
2022-08-01T02:12:08.771Z,49.15
2022-08-01T02:14:41.676Z,45.08
2022-08-01T02:17:13.436Z,48.45
2022-08-01T02:19:40.091Z,45.95
2022-08-01T02:22:21.557Z,44.25
2022-08-01T02:24:55.956Z,42.47
2022-08-01T02:27:29.656Z,43.72
2022-08-01T02:30:06.377Z,42.58
2022-08-01T02:32:59.155Z,41.97
2022-08-01T02:35:28.928Z,44.75
2022-08-01T02:37:58.757Z,42.90
2022-08-01T02:40:29.128Z,48.33
2022-08-01T02:42:57.877Z,44.40
2022-08-01T02:45:27.118Z,42.90
2022-08-01T02:47:58.886Z,42.40
2022-08-01T02:50:27.522Z,41.33
2022-08-01T02:52:56.240Z,43.10
2022-08-01T02:55:23.755Z,42.70
2022-08-01T02:58:00.196Z,44.30
2022-08-01T03:00:29.231Z,41.70
2022-08-01T03:02:57.937Z,41.15
2022-08-01T03:05:26.087Z,42.60
2022-08-01T03:07:54.800Z,43.25
2022-08-01T03:10:21.582Z,42.88
2022-08-01T03:12:51.698Z,42.53
2022-08-01T03:17:47.840Z,43.40
2022-08-01T03:20:16.163Z,42.90
2022-08-01T03:22:44.657Z,43.58
2022-08-01T03:25:13.737Z,44.25
2022-08-01T03:27:42.858Z,44.55
2022-08-01T03:30:11.447Z,46.00
2022-08-01T03:32:38.186Z,43.20
2022-08-01T03:35:05.299Z,44.22
2022-08-01T03:38:14.861Z,42.20
2022-08-01T03:40:56.295Z,39.67
2022-08-01T03:43:38.962Z,39.70
2022-08-01T03:46:18.574Z,37.42
2022-08-01T03:48:49.516Z,37.58
2022-08-01T03:51:18.773Z,38.05
2022-08-01T03:53:48.144Z,38.28
2022-08-01T03:56:20.558Z,37.88
2022-08-01T03:58:49.959Z,38.08
2022-08-01T04:01:18.423Z,38.30
2022-08-01T04:03:45.706Z,37.08
2022-08-01T04:06:14.715Z,39.33
2022-08-01T04:08:42.187Z,36.28
2022-08-01T04:11:10.327Z,38.15
2022-08-01T04:13:38.482Z,38.85
2022-08-01T04:16:05.647Z,39.45
2022-08-01T04:18:33.010Z,38.58
2022-08-01T04:20:59.568Z,36.53
2022-08-01T04:23:28.676Z,37.20
2022-08-01T04:25:57.438Z,35.88
2022-08-01T04:28:25.694Z,35.88
2022-08-01T04:31:01.381Z,35.05
2022-08-01T04:33:30.842Z,35.40
2022-08-01T04:36:03.687Z,34.42
2022-08-01T04:38:32.883Z,34.40
2022-08-01T04:41:09.378Z,34.72
2022-08-01T04:43:37.653Z,33.75
2022-08-01T04:46:04.997Z,34.08
2022-08-01T04:48:32.973Z,34.13
2022-08-01T04:51:00.052Z,33.97
2022-08-01T04:53:27.567Z,32.30
2022-08-01T04:55:54.413Z,32.72
2022-08-01T04:58:20.867Z,32.90
2022-08-01T05:00:47.916Z,32.40
2022-08-01T05:03:14.664Z,32.42
2022-08-01T05:05:41.285Z,32.60
2022-08-01T05:08:07.780Z,32.42
2022-08-01T05:10:35.172Z,31.85
2022-08-01T05:13:01.719Z,32.45
2022-08-01T05:15:28.194Z,32.95
2022-08-01T05:17:55.257Z,33.42
2022-08-01T05:20:22.210Z,34.83
2022-08-01T05:22:48.689Z,33.75
2022-08-01T05:25:15.226Z,33.92
2022-08-01T05:27:47.035Z,35.15
2022-08-01T05:30:15.664Z,35.75
2022-08-01T05:32:42.619Z,37.50
2022-08-01T05:35:09.788Z,36.53
2022-08-01T05:37:36.300Z,36.78
2022-08-01T05:40:03.046Z,35.63
2022-08-01T05:42:29.572Z,34.30
2022-08-01T05:44:56.026Z,35.38
2022-08-01T05:47:22.617Z,34.83
2022-08-01T05:49:49.391Z,34.35
2022-08-01T05:52:15.840Z,36.70
2022-08-01T05:54:42.278Z,34.92
2022-08-01T05:57:08.694Z,36.47
2022-08-01T05:59:35.094Z,35.30
2022-08-01T06:02:02.082Z,35.75
2022-08-01T06:04:28.772Z,34.55
2022-08-01T06:06:55.265Z,33.67
2022-08-01T06:09:21.747Z,31.60
2022-08-01T06:11:48.461Z,32.20
2022-08-01T06:14:14.893Z,34.55
2022-08-01T06:16:41.446Z,30.10
2022-08-01T06:19:07.884Z,29.73
2022-08-01T06:21:34.318Z,29.63
2022-08-01T06:24:02.321Z,36.50
2022-08-01T06:26:28.766Z,31.88
2022-08-01T06:28:55.207Z,31.02
2022-08-01T06:31:21.691Z,29.05
2022-08-01T06:33:48.135Z,27.50
2022-08-01T06:36:14.608Z,26.60
2022-08-01T06:38:41.012Z,24.15
2022-08-01T06:41:07.449Z,24.85
2022-08-01T06:43:33.861Z,24.30
2022-08-01T06:46:00.383Z,30.50
2022-08-01T06:48:27.503Z,28.27
2022-08-01T06:51:08.890Z,28.65
2022-08-01T06:53:37.561Z,23.15
2022-08-01T06:56:05.275Z,20.95
2022-08-01T06:58:32.217Z,24.02
2022-08-01T07:00:59.555Z,21.42
2022-08-01T07:03:26.384Z,22.65
2022-08-01T07:05:54.276Z,23.27
2022-08-01T07:08:21.991Z,27.33
2022-08-01T07:10:48.474Z,26.92
2022-08-01T07:13:17.277Z,22.75
2022-08-01T07:15:44.364Z,25.90
2022-08-01T07:18:10.791Z,22.95
2022-08-01T07:20:50.347Z,24.35
2022-08-01T07:23:22.594Z,36.25
2022-08-01T07:25:53.003Z,30.85
2022-08-01T07:28:20.237Z,24.15
2022-08-01T07:30:46.882Z,25.45
2022-08-01T07:33:13.728Z,24.63
2022-08-01T07:35:41.435Z,23.70
2022-08-01T07:38:12.403Z,21.98
2022-08-01T07:40:39.315Z,25.30
2022-08-01T07:43:05.826Z,19.98
2022-08-01T07:45:32.802Z,21.23
2022-08-01T07:48:04.384Z,19.85
2022-08-01T07:50:35.715Z,16.83
2022-08-01T07:53:03.421Z,19.60
2022-08-01T07:55:30.129Z,19.88
2022-08-01T07:57:56.694Z,19.05
2022-08-01T08:00:23.205Z,17.23
2022-08-01T08:02:49.680Z,16.45
2022-08-01T08:05:16.229Z,21.05
2022-08-01T08:08:06.908Z,16.60
2022-08-01T08:10:33.956Z,14.52
2022-08-01T08:13:01.829Z,21.23
2022-08-01T08:15:29.180Z,19.40
2022-08-01T08:17:56.132Z,23.23
2022-08-01T08:20:25.822Z,14.10
2022-08-01T08:22:52.499Z,17.52
2022-08-01T08:25:20.096Z,19.15
2022-08-01T08:27:49.624Z,19.58
2022-08-01T08:30:16.204Z,22.30
2022-08-01T08:32:42.818Z,14.95
2022-08-01T08:35:12.094Z,18.92
2022-08-01T08:37:47.316Z,16.52
2022-08-01T08:40:16.040Z,19.55
2022-08-01T08:42:42.834Z,16.60
2022-08-01T08:45:12.160Z,16.15
2022-08-01T08:47:40.412Z,13.20
2022-08-01T08:50:07.199Z,17.02
2022-08-01T08:52:38.883Z,14.23
2022-08-01T08:55:06.149Z,17.30
2022-08-01T08:57:33.379Z,15.25
2022-08-01T09:00:00.237Z,15.70
2022-08-01T09:02:26.675Z,14.10
2022-08-01T09:04:53.574Z,13.75
2022-08-01T09:07:20.261Z,24.38
2022-08-01T09:09:49.193Z,20.02
2022-08-01T09:12:20.363Z,19.58
2022-08-01T09:14:48.453Z,20.15
2022-08-01T09:17:15.044Z,14.10
2022-08-01T09:19:48.633Z,16.05
2022-08-01T09:22:22.301Z,18.73
2022-08-01T09:25:09.463Z,19.85
2022-08-01T09:27:44.292Z,19.63
2022-08-01T09:30:19.344Z,16.95
2022-08-01T09:33:06.184Z,20.35
2022-08-01T09:35:43.744Z,20.83
2022-08-01T09:38:24.608Z,23.13
2022-08-01T09:40:55.563Z,23.00
2022-08-01T09:43:25.336Z,17.42
2022-08-01T09:45:55.103Z,21.38
2022-08-01T09:48:22.986Z,22.40
2022-08-01T09:51:04.333Z,20.23
2022-08-01T09:53:42.982Z,13.68
2022-08-01T09:56:18.041Z,25.20
2022-08-01T09:58:53.695Z,17.92
2022-08-01T10:01:25.804Z,19.17
2022-08-01T10:04:17.121Z,12.32
2022-08-01T10:06:50.684Z,16.88
2022-08-01T10:09:28.733Z,15.80
2022-08-01T10:14:37.057Z,16.58
2022-08-01T10:17:07.807Z,16.25
2022-08-01T10:19:37.719Z,15.32
2022-08-01T10:22:06.378Z,14.63
2022-08-01T10:24:37.925Z,13.02
2022-08-01T10:27:12.397Z,15.73
2022-08-01T10:30:16.884Z,13.50
2022-08-01T10:32:54.882Z,14.07
2022-08-01T10:35:38.020Z,14.80
2022-08-01T10:38:10.898Z,15.38
2022-08-01T10:40:41.305Z,38.95
2022-08-01T10:43:10.069Z,17.85
2022-08-01T10:45:37.149Z,16.95
2022-08-01T10:48:21.009Z,18.02
2022-08-01T10:50:50.692Z,14.85
2022-08-01T10:53:23.263Z,14.82
2022-08-01T10:55:57.025Z,15.50
2022-08-01T10:58:38.016Z,18.50
2022-08-01T11:01:16.564Z,19.02
2022-08-01T11:03:58.965Z,15.60
2022-08-01T11:07:05.229Z,12.73
2022-08-01T11:09:40.990Z,14.60
2022-08-01T11:12:24.479Z,11.38
2022-08-01T11:15:02.444Z,20.25
2022-08-01T11:17:37.481Z,14.30
2022-08-01T11:20:26.020Z,11.25
2022-08-01T11:22:59.882Z,16.48
2022-08-01T11:26:05.304Z,11.48
2022-08-01T11:28:28.697Z,13.98
2022-08-01T11:31:18.679Z,14.68
2022-08-01T11:33:46.707Z,13.20
2022-08-01T11:36:14.545Z,12.45
2022-08-01T11:39:14.255Z,11.77
2022-08-01T11:41:42.197Z,13.13
2022-08-01T11:44:21.266Z,10.80
2022-08-01T11:46:56.446Z,10.35
2022-08-01T11:49:38.701Z,13.70
2022-08-01T11:52:31.300Z,15.35
2022-08-01T11:55:11.496Z,10.95
2022-08-01T11:57:39.301Z,10.98
2022-08-01T12:00:15.131Z,13.20
2022-08-01T12:02:45.685Z,9.90
2022-08-01T12:05:15.278Z,12.27
2022-08-01T12:07:43.649Z,11.70
2022-08-01T12:10:12.673Z,16.35
2022-08-01T12:12:57.810Z,10.75
2022-08-01T12:15:25.977Z,13.52
2022-08-01T12:17:59.535Z,14.05
2022-08-01T12:20:30.532Z,15.90
2022-08-01T12:22:59.255Z,15.27
2022-08-01T12:25:25.809Z,13.88
2022-08-01T12:27:56.265Z,12.52
2022-08-01T12:30:24.873Z,13.25
2022-08-01T12:32:53.682Z,12.43
2022-08-01T12:35:24.075Z,20.70
2022-08-01T12:37:53.866Z,15.70
2022-08-01T12:43:03.303Z,10.80
2022-08-01T12:45:34.271Z,12.27
2022-08-01T12:48:02.099Z,12.77
2022-08-01T12:50:30.785Z,12.50
2022-08-01T12:52:58.293Z,12.95
2022-08-01T12:55:34.131Z,13.57
2022-08-01T12:58:20.314Z,11.40
2022-08-01T13:00:49.921Z,17.85
2022-08-01T13:03:19.331Z,14.38
2022-08-01T13:05:52.867Z,9.25
2022-08-01T13:08:24.127Z,12.57
2022-08-01T13:10:51.408Z,14.73
2022-08-01T13:13:27.915Z,11.70
2022-08-01T13:16:06.271Z,12.73
2022-08-01T13:18:34.437Z,15.82
2022-08-01T13:21:16.965Z,10.80
2022-08-01T13:24:07.973Z,15.60
2022-08-01T13:26:51.446Z,15.45
2022-08-01T13:29:20.976Z,8.77
2022-08-01T13:31:48.765Z,15.20
2022-08-01T13:34:16.630Z,12.32
2022-08-01T13:36:48.839Z,14.00
2022-08-01T13:39:34.258Z,12.85
2022-08-01T13:42:00.720Z,15.10
2022-08-01T13:44:27.215Z,14.05
2022-08-01T13:46:53.734Z,9.70
2022-08-01T13:49:21.337Z,13.82
2022-08-01T13:51:50.990Z,8.82
2022-08-01T13:54:17.806Z,13.88
2022-08-01T13:56:44.270Z,13.40
2022-08-01T13:59:10.707Z,13.40
2022-08-01T14:01:37.419Z,15.48
2022-08-01T14:04:04.682Z,10.13
2022-08-01T14:06:32.763Z,9.73
2022-08-01T14:08:59.255Z,11.95
2022-08-01T14:11:30.567Z,11.77
2022-08-01T14:14:04.023Z,11.85
2022-08-01T14:16:30.865Z,13.32
2022-08-01T14:18:57.357Z,11.23
2022-08-01T14:21:23.810Z,17.48
2022-08-01T14:23:50.234Z,11.70
2022-08-01T14:26:16.684Z,14.00
2022-08-01T14:28:43.087Z,9.68
2022-08-01T14:31:09.609Z,14.68
2022-08-01T14:33:36.176Z,14.90
2022-08-01T14:36:20.689Z,11.48
2022-08-01T14:38:49.984Z,12.25
2022-08-01T14:41:16.608Z,15.70
2022-08-01T14:43:43.615Z,12.52
2022-08-01T14:46:11.124Z,13.93
2022-08-01T14:48:37.854Z,11.18
2022-08-01T14:51:05.211Z,11.63
2022-08-01T14:53:35.957Z,14.25
2022-08-01T14:56:06.001Z,11.57
2022-08-01T14:58:32.604Z,15.70
2022-08-01T15:00:59.745Z,12.60
2022-08-01T15:03:26.770Z,13.30
2022-08-01T15:05:53.387Z,21.02
2022-08-01T15:08:19.839Z,26.98
2022-08-01T15:10:46.351Z,19.83
2022-08-01T15:13:12.847Z,19.23
2022-08-01T15:15:39.315Z,14.55
2022-08-01T15:18:05.858Z,15.07
2022-08-01T15:20:33.788Z,13.00
2022-08-01T15:23:00.346Z,14.18
2022-08-01T15:25:26.892Z,15.95
2022-08-01T15:28:07.198Z,18.13
2022-08-01T15:30:34.128Z,14.23
2022-08-01T15:33:00.601Z,14.25
2022-08-01T15:35:27.237Z,14.93
2022-08-01T15:37:53.714Z,18.00
2022-08-01T15:40:20.345Z,12.43
2022-08-01T15:42:46.898Z,16.90
2022-08-01T15:45:44.470Z,10.07
2022-08-01T15:48:03.838Z,11.73
2022-08-01T15:50:30.413Z,16.33
2022-08-01T15:52:56.891Z,10.57
2022-08-01T15:55:23.348Z,13.73
2022-08-01T15:57:49.880Z,16.08
2022-08-01T16:00:16.483Z,20.77
2022-08-01T16:02:42.992Z,18.00
2022-08-01T16:05:10.145Z,23.52
2022-08-01T16:07:36.879Z,14.77
2022-08-01T16:10:23.279Z,16.60
2022-08-01T16:12:49.688Z,15.32
2022-08-01T16:15:16.127Z,17.63
2022-08-01T16:17:44.677Z,11.63
2022-08-01T16:20:11.509Z,11.90
2022-08-01T16:22:37.930Z,11.88
2022-08-01T16:25:07.725Z,15.52
2022-08-01T16:27:34.246Z,14.60
2022-08-01T16:30:05.717Z,13.02
2022-08-01T16:32:34.241Z,11.18
2022-08-01T16:35:08.332Z,15.25
2022-08-01T16:37:35.633Z,16.63
2022-08-01T16:40:02.040Z,13.57
2022-08-01T16:42:28.895Z,13.63
2022-08-01T16:44:55.488Z,21.40
2022-08-01T16:47:21.972Z,13.32
2022-08-01T16:49:48.454Z,14.68
2022-08-01T16:52:16.071Z,14.50
2022-08-01T16:54:42.515Z,13.60
2022-08-01T16:57:09.333Z,17.73
2022-08-01T16:59:40.897Z,18.65
2022-08-01T17:02:08.595Z,15.50
2022-08-01T17:04:35.146Z,16.15
2022-08-01T17:07:01.682Z,12.55
2022-08-01T17:09:28.126Z,13.75
2022-08-01T17:11:54.577Z,9.88
2022-08-01T17:14:20.984Z,15.40
2022-08-01T17:16:47.469Z,8.90
2022-08-01T17:19:14.675Z,12.25
2022-08-01T17:21:41.851Z,16.98
2022-08-01T17:24:08.651Z,12.20
2022-08-01T17:26:35.133Z,16.48
2022-08-01T17:29:01.659Z,12.00
2022-08-01T17:31:28.297Z,11.57
2022-08-01T17:33:55.395Z,15.77
2022-08-01T17:36:22.351Z,15.80
2022-08-01T17:38:49.054Z,16.60
2022-08-01T17:41:15.841Z,14.18
2022-08-01T17:43:42.332Z,10.38
2022-08-01T17:46:08.841Z,15.20
2022-08-01T17:48:35.534Z,15.05
2022-08-01T17:51:02.228Z,13.20
2022-08-01T17:53:29.393Z,14.93
2022-08-01T17:55:58.450Z,14.45
2022-08-01T17:58:51.458Z,16.20
2022-08-01T18:01:14.140Z,12.60
2022-08-01T18:03:41.824Z,13.85
2022-08-01T18:06:10.300Z,12.75
2022-08-01T18:08:40.424Z,14.15
2022-08-01T18:13:34.304Z,18.23
2022-08-01T18:16:01.083Z,12.32
2022-08-01T18:18:33.172Z,10.80
2022-08-01T18:21:04.363Z,15.30
2022-08-01T18:23:33.372Z,19.85
2022-08-01T18:26:03.187Z,16.33
2022-08-01T18:28:35.168Z,13.98
2022-08-01T18:31:06.224Z,16.67
2022-08-01T18:33:33.754Z,12.63
2022-08-01T18:36:01.951Z,14.77
2022-08-01T18:38:32.056Z,17.17
2022-08-01T18:40:59.440Z,17.20
2022-08-01T18:43:25.857Z,15.88
2022-08-01T18:45:52.286Z,13.95
2022-08-01T18:48:19.040Z,15.45
2022-08-01T18:50:45.518Z,13.07
2022-08-01T18:53:11.979Z,14.82
2022-08-01T18:55:38.417Z,14.02
2022-08-01T18:58:04.823Z,13.80
2022-08-01T19:00:31.296Z,11.55
2022-08-01T19:02:58.299Z,15.60
2022-08-01T19:05:24.874Z,13.05
2022-08-01T19:08:05.093Z,17.52
2022-08-01T19:10:38.809Z,12.95
2022-08-01T19:13:05.617Z,13.32
2022-08-01T19:15:32.315Z,26.40
2022-08-01T19:17:58.819Z,15.95
2022-08-01T19:20:26.162Z,12.70
2022-08-01T19:22:52.578Z,14.35
2022-08-01T19:25:19.308Z,23.42
2022-08-01T19:27:48.202Z,18.67
2022-08-01T19:30:16.171Z,17.15
2022-08-01T19:32:44.097Z,22.48
2022-08-01T19:35:13.221Z,13.18
2022-08-01T19:37:45.566Z,14.40
2022-08-01T19:40:27.208Z,14.75
2022-08-01T19:42:54.915Z,14.52
2022-08-01T19:45:22.083Z,17.15
2022-08-01T19:47:56.747Z,15.45
2022-08-01T19:50:28.516Z,16.48
2022-08-01T19:53:02.134Z,13.45
2022-08-01T19:55:30.170Z,13.02
2022-08-01T19:58:25.907Z,16.25
2022-08-01T20:00:44.583Z,16.10
2022-08-01T20:03:14.931Z,13.88
2022-08-01T20:05:41.566Z,12.25
2022-08-01T20:08:08.822Z,10.85
2022-08-01T20:10:38.081Z,13.80
2022-08-01T20:13:05.337Z,16.63
2022-08-01T20:15:31.971Z,16.73
2022-08-01T20:17:59.058Z,13.20
2022-08-01T20:20:26.927Z,13.30
2022-08-01T20:22:56.823Z,16.45
2022-08-01T20:25:32.124Z,13.15
2022-08-01T20:28:11.002Z,17.88
2022-08-01T20:30:41.907Z,17.63
2022-08-01T20:33:10.450Z,15.65
2022-08-01T20:35:52.079Z,11.88
2022-08-01T20:38:23.923Z,13.73
2022-08-01T20:40:52.162Z,15.43
2022-08-01T20:43:20.974Z,12.80
2022-08-01T20:45:48.847Z,14.02
2022-08-01T20:48:17.453Z,13.00
2022-08-01T20:51:04.016Z,14.57
2022-08-01T20:53:31.977Z,15.43
2022-08-01T20:56:09.054Z,15.02
2022-08-01T20:58:50.416Z,16.55
2022-08-01T21:01:24.797Z,13.02
2022-08-01T21:04:02.870Z,18.00
2022-08-01T21:06:38.501Z,12.93
2022-08-01T21:09:06.340Z,18.70
2022-08-01T21:11:50.002Z,17.70
2022-08-01T21:14:20.883Z,12.10
2022-08-01T21:16:59.874Z,13.38
2022-08-01T21:19:27.908Z,18.63
2022-08-01T21:22:39.708Z,14.50
2022-08-01T21:25:09.488Z,21.23
2022-08-01T21:27:37.277Z,14.30
2022-08-01T21:30:07.531Z,11.95
2022-08-01T21:35:03.897Z,14.57
2022-08-01T21:37:31.503Z,12.93
2022-08-01T21:40:00.032Z,15.38
2022-08-01T21:42:29.300Z,17.08
2022-08-01T21:45:00.817Z,16.23
2022-08-01T21:47:28.912Z,16.58
2022-08-01T21:50:00.979Z,21.58
2022-08-01T21:52:33.830Z,12.32
2022-08-01T21:55:03.995Z,15.38
2022-08-01T21:57:55.158Z,15.52
2022-08-01T22:00:25.632Z,12.27
2022-08-01T22:03:17.670Z,11.05
2022-08-01T22:05:51.471Z,12.25
2022-08-01T22:08:27.514Z,13.65
2022-08-01T22:10:59.902Z,18.10
2022-08-01T22:13:26.432Z,15.15
2022-08-01T22:15:56.393Z,11.98
2022-08-01T22:18:24.606Z,14.30
2022-08-01T22:20:51.469Z,15.18
2022-08-01T22:23:22.095Z,18.83
2022-08-01T22:25:52.080Z,15.07
2022-08-01T22:28:19.375Z,16.48
2022-08-01T22:30:48.464Z,17.38
2022-08-01T22:33:17.627Z,12.40
2022-08-01T22:35:50.011Z,17.43
2022-08-01T22:38:18.495Z,12.32
2022-08-01T22:41:00.402Z,16.80
2022-08-01T22:43:39.286Z,17.00
2022-08-01T22:46:22.412Z,18.15
2022-08-01T22:49:09.009Z,15.52
2022-08-01T22:51:55.318Z,19.27
2022-08-01T22:54:35.155Z,14.10
2022-08-01T22:57:07.424Z,16.48
2022-08-01T22:59:48.334Z,16.77
2022-08-01T23:02:17.114Z,16.63
2022-08-01T23:04:47.880Z,13.13
2022-08-01T23:09:55.422Z,19.90
2022-08-01T23:12:25.494Z,22.63
2022-08-01T23:14:57.215Z,22.90
2022-08-01T23:17:27.087Z,41.70
2022-08-01T23:19:57.736Z,68.03
2022-08-01T23:22:30.087Z,56.05
2022-08-01T23:25:03.949Z,39.05
2022-08-01T23:28:03.669Z,31.23
2022-08-01T23:30:26.902Z,37.97
2022-08-01T23:32:54.346Z,41.72
2022-08-01T23:35:21.521Z,40.45
2022-08-01T23:37:48.079Z,41.35
2022-08-01T23:40:14.670Z,45.88
2022-08-01T23:42:41.141Z,48.50
2022-08-01T23:45:08.174Z,46.97
2022-08-01T23:47:34.634Z,44.22
2022-08-01T23:50:01.044Z,38.97
2022-08-01T23:52:32.313Z,37.63
2022-08-01T23:54:59.804Z,38.78
2022-08-01T23:57:41.121Z,40.47
